sensor_id;sensor_type;location;lat;lon;timestamp;temperature;humidity
75210;DHT22;63796;53.136;14.882;2024-03-23T00:52:09;8.90;99.90
75210;DHT22;63796;53.136;14.882;2024-03-23T00:54:36;8.80;99.90
75210;DHT22;63796;53.136;14.882;2024-03-23T00:57:03;8.80;99.90
75210;DHT22;63796;53.136;14.882;2024-03-23T00:59:30;8.80;99.90
75210;DHT22;63796;53.136;14.882;2024-03-23T01:01:58;8.80;99.90
75210;DHT22;63796;53.136;14.882;2024-03-23T01:04:25;8.90;99.90
75210;DHT22;63796;53.136;14.882;2024-03-23T01:06:52;8.80;99.90
75210;DHT22;63796;53.136;14.882;2024-03-23T01:09:19;8.90;99.90
75210;DHT22;63796;53.136;14.882;2024-03-23T01:11:47;8.90;99.90
75210;DHT22;63796;53.136;14.882;2024-03-23T01:14:14;8.80;99.90
75210;DHT22;63796;53.136;14.882;2024-03-23T01:16:41;8.80;99.90
75210;DHT22;63796;53.136;14.882;2024-03-23T01:19:08;8.80;99.90
75210;DHT22;63796;53.136;14.882;2024-03-23T01:21:36;8.70;99.90
75210;DHT22;63796;53.136;14.882;2024-03-23T01:24:03;8.70;99.90
75210;DHT22;63796;53.136;14.882;2024-03-23T01:26:30;8.70;99.90
75210;DHT22;63796;53.136;14.882;2024-03-23T01:28:57;8.70;99.90
75210;DHT22;63796;53.136;14.882;2024-03-23T01:31:25;8.80;99.90
75210;DHT22;63796;53.136;14.882;2024-03-23T01:33:52;8.80;99.90
75210;DHT22;63796;53.136;14.882;2024-03-23T01:36:19;8.70;99.90
75210;DHT22;63796;53.136;14.882;2024-03-23T01:38:46;8.70;99.90
75210;DHT22;63796;53.136;14.882;2024-03-23T01:41:14;8.70;99.90
75210;DHT22;63796;53.136;14.882;2024-03-23T01:43:41;8.60;99.90
75210;DHT22;63796;53.136;14.882;2024-03-23T01:46:08;8.70;99.90
75210;DHT22;63796;53.136;14.882;2024-03-23T01:48:35;8.70;99.90
75210;DHT22;63796;53.136;14.882;2024-03-23T01:51:03;8.60;99.90
75210;DHT22;63796;53.136;14.882;2024-03-23T01:53:31;8.60;99.90
75210;DHT22;63796;53.136;14.882;2024-03-23T01:55:58;8.70;99.90
75210;DHT22;63796;53.136;14.882;2024-03-23T01:58:26;8.60;99.90
75210;DHT22;63796;53.136;14.882;2024-03-23T02:00:53;8.60;99.90
75210;DHT22;63796;53.136;14.882;2024-03-23T02:03:27;8.60;99.90
75210;DHT22;63796;53.136;14.882;2024-03-23T02:05:55;8.60;99.90
75210;DHT22;63796;53.136;14.882;2024-03-23T02:08:23;8.50;99.90
75210;DHT22;63796;53.136;14.882;2024-03-23T02:10:51;8.50;99.90
75210;DHT22;63796;53.136;14.882;2024-03-23T02:13:18;8.60;99.90
75210;DHT22;63796;53.136;14.882;2024-03-23T02:15:46;8.60;99.90
75210;DHT22;63796;53.136;14.882;2024-03-23T02:19:47;8.70;99.90
75210;DHT22;63796;53.136;14.882;2024-03-23T02:23:47;8.60;99.90
75210;DHT22;63796;53.136;14.882;2024-03-23T02:27:48;8.50;99.90
75210;DHT22;63796;53.136;14.882;2024-03-23T02:31:49;8.50;99.90
75210;DHT22;63796;53.136;14.882;2024-03-23T02:35:49;8.50;99.90
75210;DHT22;63796;53.136;14.882;2024-03-23T02:39:50;8.50;99.90
75210;DHT22;63796;53.136;14.882;2024-03-23T02:43:51;8.40;99.90
75210;DHT22;63796;53.136;14.882;2024-03-23T02:47:52;8.40;99.90
75210;DHT22;63796;53.136;14.882;2024-03-23T02:51:52;8.50;99.90
75210;DHT22;63796;53.136;14.882;2024-03-23T02:55:53;8.40;99.90
75210;DHT22;63796;53.136;14.882;2024-03-23T02:59:54;8.40;99.90
75210;DHT22;63796;53.136;14.882;2024-03-23T03:03:54;8.40;99.90
75210;DHT22;63796;53.136;14.882;2024-03-23T03:07:55;8.40;99.90
75210;DHT22;63796;53.136;14.882;2024-03-23T03:11:56;8.40;99.90
75210;DHT22;63796;53.136;14.882;2024-03-23T03:15:57;8.30;99.90
75210;DHT22;63796;53.136;14.882;2024-03-23T03:19:57;8.40;99.90
75210;DHT22;63796;53.136;14.882;2024-03-23T03:23:58;8.40;99.90
75210;DHT22;63796;53.136;14.882;2024-03-23T03:27:59;8.30;99.90
75210;DHT22;63796;53.136;14.882;2024-03-23T03:32:00;8.30;99.90
75210;DHT22;63796;53.136;14.882;2024-03-23T03:36:01;8.30;99.90
75210;DHT22;63796;53.136;14.882;2024-03-23T03:40:01;8.30;99.90
75210;DHT22;63796;53.136;14.882;2024-03-23T03:44:02;8.20;99.90
75210;DHT22;63796;53.136;14.882;2024-03-23T03:48:03;8.20;99.90
75210;DHT22;63796;53.136;14.882;2024-03-23T03:52:04;8.20;99.90
75210;DHT22;63796;53.136;14.882;2024-03-23T03:56:04;8.20;99.90
75210;DHT22;63796;53.136;14.882;2024-03-23T04:00:05;8.20;99.90
75210;DHT22;63796;53.136;14.882;2024-03-23T04:04:06;8.10;99.90
75210;DHT22;63796;53.136;14.882;2024-03-23T04:08:07;8.10;99.90
75210;DHT22;63796;53.136;14.882;2024-03-23T04:12:14;8.10;99.90
75210;DHT22;63796;53.136;14.882;2024-03-23T04:16:24;8.10;99.90
75210;DHT22;63796;53.136;14.882;2024-03-23T04:20:24;8.00;99.90
75210;DHT22;63796;53.136;14.882;2024-03-23T04:24:25;8.00;99.90
75210;DHT22;63796;53.136;14.882;2024-03-23T04:28:26;7.90;99.90
75210;DHT22;63796;53.136;14.882;2024-03-23T04:32:27;8.00;99.90
75210;DHT22;63796;53.136;14.882;2024-03-23T04:36:27;7.80;99.90
75210;DHT22;63796;53.136;14.882;2024-03-23T04:40:28;7.80;99.90
75210;DHT22;63796;53.136;14.882;2024-03-23T04:44:38;7.80;99.90
75210;DHT22;63796;53.136;14.882;2024-03-23T04:48:39;7.80;99.90
75210;DHT22;63796;53.136;14.882;2024-03-23T04:52:40;7.70;99.90
75210;DHT22;63796;53.136;14.882;2024-03-23T04:56:41;7.70;99.90
75210;DHT22;63796;53.136;14.882;2024-03-23T05:00:41;7.60;99.90
75210;DHT22;63796;53.136;14.882;2024-03-23T05:04:42;7.60;99.90
75210;DHT22;63796;53.136;14.882;2024-03-23T05:08:43;7.60;99.90
75210;DHT22;63796;53.136;14.882;2024-03-23T05:12:44;7.60;99.90
75210;DHT22;63796;53.136;14.882;2024-03-23T05:16:44;7.60;99.90
75210;DHT22;63796;53.136;14.882;2024-03-23T05:20:45;7.50;99.90
75210;DHT22;63796;53.136;14.882;2024-03-23T05:24:46;7.50;99.90
75210;DHT22;63796;53.136;14.882;2024-03-23T05:28:47;7.50;99.90
75210;DHT22;63796;53.136;14.882;2024-03-23T05:32:47;7.50;99.90
75210;DHT22;63796;53.136;14.882;2024-03-23T05:36:48;7.40;99.90
75210;DHT22;63796;53.136;14.882;2024-03-23T05:40:55;7.40;99.90
75210;DHT22;63796;53.136;14.882;2024-03-23T05:44:55;7.50;99.90
75210;DHT22;63796;53.136;14.882;2024-03-23T05:48:57;7.50;99.90
75210;DHT22;63796;53.136;14.882;2024-03-23T05:52:57;7.60;99.90
75210;DHT22;63796;53.136;14.882;2024-03-23T05:56:58;7.60;99.90
75210;DHT22;63796;53.136;14.882;2024-03-23T06:00:59;7.50;99.90
75210;DHT22;63796;53.136;14.882;2024-03-23T06:04:59;7.60;99.90
75210;DHT22;63796;53.136;14.882;2024-03-23T06:09:00;7.60;99.90
75210;DHT22;63796;53.136;14.882;2024-03-23T06:13:01;7.60;99.90
75210;DHT22;63796;53.136;14.882;2024-03-23T06:17:02;7.60;99.90
75210;DHT22;63796;53.136;14.882;2024-03-23T06:21:02;7.70;99.90
75210;DHT22;63796;53.136;14.882;2024-03-23T06:25:03;7.80;99.90
75210;DHT22;63796;53.136;14.882;2024-03-23T06:29:04;7.70;99.90
75210;DHT22;63796;53.136;14.882;2024-03-23T06:33:05;7.80;99.90
75210;DHT22;63796;53.136;14.882;2024-03-23T06:37:06;8.00;99.90
75210;DHT22;63796;53.136;14.882;2024-03-23T06:41:06;8.00;99.90
75210;DHT22;63796;53.136;14.882;2024-03-23T06:45:07;8.20;99.90
75210;DHT22;63796;53.136;14.882;2024-03-23T06:49:08;8.20;99.90
75210;DHT22;63796;53.136;14.882;2024-03-23T06:53:09;8.30;99.90
75210;DHT22;63796;53.136;14.882;2024-03-23T06:57:09;8.30;99.90
75210;DHT22;63796;53.136;14.882;2024-03-23T07:01:10;8.40;99.90
75210;DHT22;63796;53.136;14.882;2024-03-23T07:05:11;8.30;99.90
75210;DHT22;63796;53.136;14.882;2024-03-23T07:09:12;8.20;99.90
75210;DHT22;63796;53.136;14.882;2024-03-23T07:13:12;8.20;99.90
75210;DHT22;63796;53.136;14.882;2024-03-23T07:17:13;8.30;99.90
75210;DHT22;63796;53.136;14.882;2024-03-23T07:21:14;8.30;99.90
75210;DHT22;63796;53.136;14.882;2024-03-23T07:25:15;8.40;99.90
75210;DHT22;63796;53.136;14.882;2024-03-23T07:29:16;8.60;99.90
75210;DHT22;63796;53.136;14.882;2024-03-23T07:33:16;8.70;99.90
75210;DHT22;63796;53.136;14.882;2024-03-23T07:37:17;8.70;99.90
75210;DHT22;63796;53.136;14.882;2024-03-23T07:41:18;8.80;99.90
75210;DHT22;63796;53.136;14.882;2024-03-23T07:45:19;9.10;99.90
75210;DHT22;63796;53.136;14.882;2024-03-23T07:49:20;9.20;99.90
75210;DHT22;63796;53.136;14.882;2024-03-23T07:53:21;9.30;99.90
75210;DHT22;63796;53.136;14.882;2024-03-23T07:57:21;9.30;99.90
75210;DHT22;63796;53.136;14.882;2024-03-23T08:01:22;9.30;99.90
75210;DHT22;63796;53.136;14.882;2024-03-23T08:05:25;9.50;99.90
75210;DHT22;63796;53.136;14.882;2024-03-23T08:09:24;9.60;99.90
75210;DHT22;63796;53.136;14.882;2024-03-23T08:13:24;9.80;99.90
75210;DHT22;63796;53.136;14.882;2024-03-23T08:17:25;10.10;99.90
75210;DHT22;63796;53.136;14.882;2024-03-23T08:21:26;10.20;99.90
75210;DHT22;63796;53.136;14.882;2024-03-23T08:25:27;10.30;99.90
75210;DHT22;63796;53.136;14.882;2024-03-23T08:29:27;10.40;99.90
75210;DHT22;63796;53.136;14.882;2024-03-23T08:33:28;10.20;99.90
75210;DHT22;63796;53.136;14.882;2024-03-23T08:37:29;10.00;99.90
75210;DHT22;63796;53.136;14.882;2024-03-23T08:41:30;10.20;99.90
75210;DHT22;63796;53.136;14.882;2024-03-23T08:45:30;10.20;99.90
75210;DHT22;63796;53.136;14.882;2024-03-23T08:49:31;10.50;99.90
75210;DHT22;63796;53.136;14.882;2024-03-23T08:53:32;10.50;99.90
75210;DHT22;63796;53.136;14.882;2024-03-23T08:57:33;10.20;99.90
75210;DHT22;63796;53.136;14.882;2024-03-23T09:01:34;9.90;99.90
75210;DHT22;63796;53.136;14.882;2024-03-23T09:05:38;9.60;99.90
75210;DHT22;63796;53.136;14.882;2024-03-23T09:09:37;9.40;99.90
75210;DHT22;63796;53.136;14.882;2024-03-23T09:13:36;9.30;99.90
75210;DHT22;63796;53.136;14.882;2024-03-23T09:17:37;9.30;99.90
75210;DHT22;63796;53.136;14.882;2024-03-23T09:21:37;9.30;99.90
75210;DHT22;63796;53.136;14.882;2024-03-23T09:25:39;9.50;99.90
75210;DHT22;63796;53.136;14.882;2024-03-23T09:29:39;9.40;99.90
75210;DHT22;63796;53.136;14.882;2024-03-23T09:33:40;9.40;99.90
75210;DHT22;63796;53.136;14.882;2024-03-23T09:37:41;9.40;99.90
75210;DHT22;63796;53.136;14.882;2024-03-23T09:41:41;9.40;99.90
75210;DHT22;63796;53.136;14.882;2024-03-23T09:45:42;9.50;99.90
75210;DHT22;63796;53.136;14.882;2024-03-23T09:49:43;9.80;99.90
75210;DHT22;63796;53.136;14.882;2024-03-23T09:53:44;9.90;99.90
75210;DHT22;63796;53.136;14.882;2024-03-23T09:57:44;9.60;99.90
75210;DHT22;63796;53.136;14.882;2024-03-23T10:01:45;9.70;99.90
75210;DHT22;63796;53.136;14.882;2024-03-23T10:05:46;9.70;99.90
75210;DHT22;63796;53.136;14.882;2024-03-23T10:09:47;9.70;99.90
75210;DHT22;63796;53.136;14.882;2024-03-23T10:13:53;9.60;99.90
75210;DHT22;63796;53.136;14.882;2024-03-23T10:17:54;9.40;99.90
75210;DHT22;63796;53.136;14.882;2024-03-23T10:21:57;9.40;99.90
75210;DHT22;63796;53.136;14.882;2024-03-23T10:26:17;9.50;99.90
75210;DHT22;63796;53.136;14.882;2024-03-23T10:30:17;9.50;99.90
75210;DHT22;63796;53.136;14.882;2024-03-23T10:34:25;9.40;99.90
75210;DHT22;63796;53.136;14.882;2024-03-23T10:38:19;9.40;99.90
75210;DHT22;63796;53.136;14.882;2024-03-23T10:42:20;9.20;99.90
75210;DHT22;63796;53.136;14.882;2024-03-23T10:46:20;9.10;99.90
75210;DHT22;63796;53.136;14.882;2024-03-23T10:50:22;9.00;99.90
75210;DHT22;63796;53.136;14.882;2024-03-23T10:54:22;9.00;99.90
75210;DHT22;63796;53.136;14.882;2024-03-23T10:58:24;8.90;99.90
75210;DHT22;63796;53.136;14.882;2024-03-23T11:02:24;8.70;99.90
75210;DHT22;63796;53.136;14.882;2024-03-23T11:06:37;8.70;99.90
75210;DHT22;63796;53.136;14.882;2024-03-23T11:10:37;8.60;99.90
75210;DHT22;63796;53.136;14.882;2024-03-23T11:14:33;8.60;99.90
75210;DHT22;63796;53.136;14.882;2024-03-23T11:18:39;8.40;99.90
75210;DHT22;63796;53.136;14.882;2024-03-23T11:22:46;7.80;99.90
75210;DHT22;63796;53.136;14.882;2024-03-23T11:26:46;7.60;99.90
75210;DHT22;63796;53.136;14.882;2024-03-23T11:30:47;7.50;99.90
75210;DHT22;63796;53.136;14.882;2024-03-23T11:34:50;7.30;99.90
75210;DHT22;63796;53.136;14.882;2024-03-23T11:38:54;7.40;99.90
75210;DHT22;63796;53.136;14.882;2024-03-23T11:42:55;7.30;99.90
75210;DHT22;63796;53.136;14.882;2024-03-23T11:47:08;7.30;99.90
75210;DHT22;63796;53.136;14.882;2024-03-23T11:51:09;6.80;99.90
75210;DHT22;63796;53.136;14.882;2024-03-23T11:55:09;6.60;99.90
75210;DHT22;63796;53.136;14.882;2024-03-23T11:59:10;6.40;99.90
75210;DHT22;63796;53.136;14.882;2024-03-23T12:03:17;6.50;99.90
75210;DHT22;63796;53.136;14.882;2024-03-23T12:07:18;6.80;99.90
75210;DHT22;63796;53.136;14.882;2024-03-23T12:11:18;6.90;99.90
75210;DHT22;63796;53.136;14.882;2024-03-23T12:15:19;7.00;99.90
75210;DHT22;63796;53.136;14.882;2024-03-23T12:19:20;7.00;99.90
75210;DHT22;63796;53.136;14.882;2024-03-23T12:23:20;7.00;99.90
75210;DHT22;63796;53.136;14.882;2024-03-23T12:27:22;7.30;99.90
75210;DHT22;63796;53.136;14.882;2024-03-23T12:31:22;7.20;99.90
75210;DHT22;63796;53.136;14.882;2024-03-23T12:35:23;7.20;99.90
75210;DHT22;63796;53.136;14.882;2024-03-23T12:39:24;7.20;99.90
75210;DHT22;63796;53.136;14.882;2024-03-23T12:43:24;7.30;99.90
75210;DHT22;63796;53.136;14.882;2024-03-23T12:47:25;7.40;99.90
75210;DHT22;63796;53.136;14.882;2024-03-23T12:51:26;7.40;99.90
75210;DHT22;63796;53.136;14.882;2024-03-23T12:55:27;7.60;99.90
75210;DHT22;63796;53.136;14.882;2024-03-23T12:59:28;7.60;99.90
75210;DHT22;63796;53.136;14.882;2024-03-23T13:03:28;7.40;99.90
75210;DHT22;63796;53.136;14.882;2024-03-23T13:07:29;7.70;99.90
75210;DHT22;63796;53.136;14.882;2024-03-23T13:11:30;7.80;99.90
75210;DHT22;63796;53.136;14.882;2024-03-23T13:15:31;8.00;99.90
75210;DHT22;63796;53.136;14.882;2024-03-23T13:19:32;7.80;99.90
75210;DHT22;63796;53.136;14.882;2024-03-23T13:23:32;7.60;99.90
75210;DHT22;63796;53.136;14.882;2024-03-23T13:27:33;7.70;99.90
75210;DHT22;63796;53.136;14.882;2024-03-23T13:31:34;7.70;99.90
75210;DHT22;63796;53.136;14.882;2024-03-23T13:35:35;7.70;99.90
75210;DHT22;63796;53.136;14.882;2024-03-23T13:39:36;7.60;99.90
75210;DHT22;63796;53.136;14.882;2024-03-23T13:43:36;7.40;99.90
75210;DHT22;63796;53.136;14.882;2024-03-23T13:47:37;7.60;99.90
75210;DHT22;63796;53.136;14.882;2024-03-23T13:51:38;7.60;99.90
75210;DHT22;63796;53.136;14.882;2024-03-23T13:55:45;7.60;99.90
75210;DHT22;63796;53.136;14.882;2024-03-23T13:59:39;7.60;99.90
75210;DHT22;63796;53.136;14.882;2024-03-23T14:03:40;7.60;99.90
75210;DHT22;63796;53.136;14.882;2024-03-23T14:07:41;7.50;99.90
75210;DHT22;63796;53.136;14.882;2024-03-23T14:11:41;7.50;99.90
75210;DHT22;63796;53.136;14.882;2024-03-23T14:15:42;7.40;99.90
75210;DHT22;63796;53.136;14.882;2024-03-23T14:19:43;7.50;99.90
75210;DHT22;63796;53.136;14.882;2024-03-23T14:23:44;7.50;99.90
75210;DHT22;63796;53.136;14.882;2024-03-23T14:27:45;7.60;99.90
75210;DHT22;63796;53.136;14.882;2024-03-23T14:31:46;7.70;99.90
75210;DHT22;63796;53.136;14.882;2024-03-23T14:35:56;7.60;99.90
75210;DHT22;63796;53.136;14.882;2024-03-23T14:39:55;7.70;99.90
75210;DHT22;63796;53.136;14.882;2024-03-23T14:43:54;7.70;99.90
75210;DHT22;63796;53.136;14.882;2024-03-23T14:47:55;7.90;99.90
75210;DHT22;63796;53.136;14.882;2024-03-23T14:51:56;7.70;99.90
75210;DHT22;63796;53.136;14.882;2024-03-23T14:55:56;7.90;99.90
75210;DHT22;63796;53.136;14.882;2024-03-23T14:59:57;7.90;99.90
75210;DHT22;63796;53.136;14.882;2024-03-23T15:03:58;7.80;99.90
75210;DHT22;63796;53.136;14.882;2024-03-23T15:07:59;8.10;99.90
75210;DHT22;63796;53.136;14.882;2024-03-23T15:11:59;8.20;99.90
75210;DHT22;63796;53.136;14.882;2024-03-23T15:16:00;8.30;99.90
75210;DHT22;63796;53.136;14.882;2024-03-23T15:20:01;8.50;99.90
75210;DHT22;63796;53.136;14.882;2024-03-23T15:24:02;8.40;99.90
75210;DHT22;63796;53.136;14.882;2024-03-23T15:28:03;8.50;99.90
75210;DHT22;63796;53.136;14.882;2024-03-23T15:32:04;8.10;99.90
75210;DHT22;63796;53.136;14.882;2024-03-23T15:36:05;8.00;99.90
75210;DHT22;63796;53.136;14.882;2024-03-23T15:40:06;7.90;99.90
75210;DHT22;63796;53.136;14.882;2024-03-23T15:44:06;7.80;99.90
75210;DHT22;63796;53.136;14.882;2024-03-23T15:48:08;7.60;99.90
75210;DHT22;63796;53.136;14.882;2024-03-23T15:52:08;7.40;99.90
75210;DHT22;63796;53.136;14.882;2024-03-23T15:56:09;7.30;99.90
75210;DHT22;63796;53.136;14.882;2024-03-23T16:00:10;7.50;99.90
75210;DHT22;63796;53.136;14.882;2024-03-23T16:04:10;7.50;99.90
75210;DHT22;63796;53.136;14.882;2024-03-23T16:08:11;7.50;99.90
75210;DHT22;63796;53.136;14.882;2024-03-23T16:12:12;7.40;99.90
75210;DHT22;63796;53.136;14.882;2024-03-23T16:16:13;7.40;99.90
75210;DHT22;63796;53.136;14.882;2024-03-23T16:20:14;7.30;99.90
75210;DHT22;63796;53.136;14.882;2024-03-23T16:24:14;7.40;99.90
75210;DHT22;63796;53.136;14.882;2024-03-23T16:28:15;7.80;99.90
75210;DHT22;63796;53.136;14.882;2024-03-23T16:32:16;8.10;99.90
75210;DHT22;63796;53.136;14.882;2024-03-23T16:36:17;7.80;99.90
75210;DHT22;63796;53.136;14.882;2024-03-23T16:40:18;7.60;99.90
75210;DHT22;63796;53.136;14.882;2024-03-23T16:44:18;7.60;99.90
75210;DHT22;63796;53.136;14.882;2024-03-23T16:48:19;7.50;99.90
75210;DHT22;63796;53.136;14.882;2024-03-23T16:52:20;7.30;99.90
75210;DHT22;63796;53.136;14.882;2024-03-23T16:56:21;7.20;99.90
75210;DHT22;63796;53.136;14.882;2024-03-23T17:00:21;7.10;99.90
75210;DHT22;63796;53.136;14.882;2024-03-23T17:04:22;6.90;99.90
75210;DHT22;63796;53.136;14.882;2024-03-23T17:08:23;6.80;99.90
75210;DHT22;63796;53.136;14.882;2024-03-23T17:12:24;6.70;99.90
75210;DHT22;63796;53.136;14.882;2024-03-23T17:16:25;6.60;99.90
75210;DHT22;63796;53.136;14.882;2024-03-23T17:20:25;6.70;99.90
75210;DHT22;63796;53.136;14.882;2024-03-23T17:24:26;6.60;99.90
75210;DHT22;63796;53.136;14.882;2024-03-23T17:28:27;6.60;99.90
75210;DHT22;63796;53.136;14.882;2024-03-23T17:32:28;6.60;99.90
75210;DHT22;63796;53.136;14.882;2024-03-23T17:36:28;6.40;99.90
75210;DHT22;63796;53.136;14.882;2024-03-23T17:40:30;6.30;99.90
75210;DHT22;63796;53.136;14.882;2024-03-23T17:44:30;6.30;99.90
75210;DHT22;63796;53.136;14.882;2024-03-23T17:48:33;6.30;99.90
75210;DHT22;63796;53.136;14.882;2024-03-23T17:52:34;6.40;99.90
75210;DHT22;63796;53.136;14.882;2024-03-23T17:56:35;6.40;99.90
75210;DHT22;63796;53.136;14.882;2024-03-23T18:00:36;6.40;99.90
75210;DHT22;63796;53.136;14.882;2024-03-23T18:04:37;6.40;99.90
75210;DHT22;63796;53.136;14.882;2024-03-23T18:08:41;6.50;99.90
75210;DHT22;63796;53.136;14.882;2024-03-23T18:12:41;6.50;99.90
75210;DHT22;63796;53.136;14.882;2024-03-23T18:16:42;6.60;99.90
75210;DHT22;63796;53.136;14.882;2024-03-23T18:20:43;6.50;99.90
75210;DHT22;63796;53.136;14.882;2024-03-23T18:24:43;6.10;99.90
75210;DHT22;63796;53.136;14.882;2024-03-23T18:28:48;5.60;99.90
75210;DHT22;63796;53.136;14.882;2024-03-23T18:32:48;5.40;99.90
75210;DHT22;63796;53.136;14.882;2024-03-23T18:36:49;5.20;99.90
75210;DHT22;63796;53.136;14.882;2024-03-23T18:40:50;5.30;99.90
75210;DHT22;63796;53.136;14.882;2024-03-23T18:44:50;5.40;99.90
75210;DHT22;63796;53.136;14.882;2024-03-23T18:48:51;4.40;99.90
75210;DHT22;63796;53.136;14.882;2024-03-23T18:52:52;4.20;99.90
75210;DHT22;63796;53.136;14.882;2024-03-23T18:56:53;4.40;99.90
75210;DHT22;63796;53.136;14.882;2024-03-23T19:00:57;4.50;99.90
75210;DHT22;63796;53.136;14.882;2024-03-23T19:04:57;4.60;99.90
75210;DHT22;63796;53.136;14.882;2024-03-23T19:08:58;4.70;99.90
75210;DHT22;63796;53.136;14.882;2024-03-23T19:12:59;4.70;99.90
75210;DHT22;63796;53.136;14.882;2024-03-23T19:17:00;4.90;99.90
75210;DHT22;63796;53.136;14.882;2024-03-23T19:21:00;5.00;99.90
75210;DHT22;63796;53.136;14.882;2024-03-23T19:25:01;5.10;99.90
75210;DHT22;63796;53.136;14.882;2024-03-23T19:29:02;5.10;99.90
75210;DHT22;63796;53.136;14.882;2024-03-23T19:33:03;5.10;99.90
75210;DHT22;63796;53.136;14.882;2024-03-23T19:37:04;5.20;99.90
75210;DHT22;63796;53.136;14.882;2024-03-23T19:41:04;5.20;99.90
75210;DHT22;63796;53.136;14.882;2024-03-23T19:45:05;5.20;99.90
75210;DHT22;63796;53.136;14.882;2024-03-23T19:49:06;5.20;99.90
75210;DHT22;63796;53.136;14.882;2024-03-23T19:53:07;5.10;99.90
75210;DHT22;63796;53.136;14.882;2024-03-23T19:57:07;5.10;99.90
75210;DHT22;63796;53.136;14.882;2024-03-23T20:01:15;5.10;99.90
75210;DHT22;63796;53.136;14.882;2024-03-23T20:05:15;5.00;99.90
75210;DHT22;63796;53.136;14.882;2024-03-23T20:09:16;4.90;99.90
75210;DHT22;63796;53.136;14.882;2024-03-23T20:13:16;4.80;99.90
75210;DHT22;63796;53.136;14.882;2024-03-23T20:17:17;4.70;99.90
75210;DHT22;63796;53.136;14.882;2024-03-23T20:21:18;4.70;99.90
75210;DHT22;63796;53.136;14.882;2024-03-23T20:25:19;4.70;99.90
75210;DHT22;63796;53.136;14.882;2024-03-23T20:29:20;4.60;99.90
75210;DHT22;63796;53.136;14.882;2024-03-23T20:33:20;4.50;99.90
75210;DHT22;63796;53.136;14.882;2024-03-23T20:37:21;4.60;99.90
75210;DHT22;63796;53.136;14.882;2024-03-23T20:41:22;4.70;99.90
75210;DHT22;63796;53.136;14.882;2024-03-23T20:45:22;4.70;99.90
75210;DHT22;63796;53.136;14.882;2024-03-23T20:49:23;4.70;99.90
75210;DHT22;63796;53.136;14.882;2024-03-23T20:53:24;4.70;99.90
75210;DHT22;63796;53.136;14.882;2024-03-23T20:57:25;4.60;99.90
75210;DHT22;63796;53.136;14.882;2024-03-23T21:01:26;4.50;99.90
75210;DHT22;63796;53.136;14.882;2024-03-23T21:05:26;4.40;99.90
75210;DHT22;63796;53.136;14.882;2024-03-23T21:09:27;4.40;99.90
75210;DHT22;63796;53.136;14.882;2024-03-23T21:13:28;4.30;99.90
75210;DHT22;63796;53.136;14.882;2024-03-23T21:17:29;4.30;99.90
75210;DHT22;63796;53.136;14.882;2024-03-23T21:21:29;4.20;99.90
75210;DHT22;63796;53.136;14.882;2024-03-23T21:25:30;4.10;99.90
75210;DHT22;63796;53.136;14.882;2024-03-23T21:29:34;4.20;99.90
75210;DHT22;63796;53.136;14.882;2024-03-23T21:33:34;4.10;99.90
75210;DHT22;63796;53.136;14.882;2024-03-23T21:37:35;4.10;99.90
75210;DHT22;63796;53.136;14.882;2024-03-23T21:41:36;4.10;99.90
75210;DHT22;63796;53.136;14.882;2024-03-23T21:45:37;4.10;99.90
75210;DHT22;63796;53.136;14.882;2024-03-23T21:49:37;4.00;99.90
75210;DHT22;63796;53.136;14.882;2024-03-23T21:53:38;4.00;99.90
75210;DHT22;63796;53.136;14.882;2024-03-23T21:57:39;4.00;99.90
75210;DHT22;63796;53.136;14.882;2024-03-23T22:01:40;4.00;99.90
75210;DHT22;63796;53.136;14.882;2024-03-23T22:05:41;4.00;99.90
75210;DHT22;63796;53.136;14.882;2024-03-23T22:09:41;4.00;99.90
75210;DHT22;63796;53.136;14.882;2024-03-23T22:13:42;4.00;99.90
75210;DHT22;63796;53.136;14.882;2024-03-23T22:17:43;4.00;99.90
75210;DHT22;63796;53.136;14.882;2024-03-23T22:21:44;4.10;99.90
75210;DHT22;63796;53.136;14.882;2024-03-23T22:25:50;4.10;99.90
75210;DHT22;63796;53.136;14.882;2024-03-23T22:29:48;4.10;99.90
75210;DHT22;63796;53.136;14.882;2024-03-23T22:33:49;4.10;99.90
75210;DHT22;63796;53.136;14.882;2024-03-23T22:37:50;4.00;99.90
75210;DHT22;63796;53.136;14.882;2024-03-23T22:41:51;4.00;99.90
75210;DHT22;63796;53.136;14.882;2024-03-23T22:45:52;4.00;99.90
75210;DHT22;63796;53.136;14.882;2024-03-23T22:49:52;4.00;99.90
75210;DHT22;63796;53.136;14.882;2024-03-23T22:53:53;3.90;99.90
75210;DHT22;63796;53.136;14.882;2024-03-23T22:57:54;3.90;99.90
75210;DHT22;63796;53.136;14.882;2024-03-23T23:01:54;3.90;99.90
75210;DHT22;63796;53.136;14.882;2024-03-23T23:04:22;3.90;99.90
75210;DHT22;63796;53.136;14.882;2024-03-23T23:06:49;3.90;99.90
75210;DHT22;63796;53.136;14.882;2024-03-23T23:09:16;3.90;99.90
75210;DHT22;63796;53.136;14.882;2024-03-23T23:11:44;3.90;99.90
75210;DHT22;63796;53.136;14.882;2024-03-23T23:14:11;3.90;99.90
75210;DHT22;63796;53.136;14.882;2024-03-23T23:16:38;3.80;99.90
75210;DHT22;63796;53.136;14.882;2024-03-23T23:19:05;3.80;99.90
75210;DHT22;63796;53.136;14.882;2024-03-23T23:21:35;3.80;99.90
75210;DHT22;63796;53.136;14.882;2024-03-23T23:24:02;3.70;99.90
75210;DHT22;63796;53.136;14.882;2024-03-23T23:26:29;3.70;99.90
75210;DHT22;63796;53.136;14.882;2024-03-23T23:28:57;3.80;99.90
75210;DHT22;63796;53.136;14.882;2024-03-23T23:31:24;3.80;99.90
75210;DHT22;63796;53.136;14.882;2024-03-23T23:33:51;3.80;99.90
75210;DHT22;63796;53.136;14.882;2024-03-23T23:36:18;3.80;99.90
75210;DHT22;63796;53.136;14.882;2024-03-23T23:38:47;3.70;99.90
75210;DHT22;63796;53.136;14.882;2024-03-23T23:41:18;3.80;99.90
75210;DHT22;63796;53.136;14.882;2024-03-23T23:43:53;3.70;99.90
75210;DHT22;63796;53.136;14.882;2024-03-23T23:46:21;3.60;99.90
75210;DHT22;63796;53.136;14.882;2024-03-23T23:48:49;3.60;99.90
75210;DHT22;63796;53.136;14.882;2024-03-23T23:51:16;3.70;99.90
75210;DHT22;63796;53.136;14.882;2024-03-23T23:53:45;3.70;99.90
75210;DHT22;63796;53.136;14.882;2024-03-23T23:56:12;3.60;99.90
75210;DHT22;63796;53.136;14.882;2024-03-23T23:58:40;3.60;99.90
